Terminal Aerodrome Forecast
Issued by NWS

Home | Current Version | Previous Version | Text Only | Print | Product List | Glossary On
Versions: 1 2 3 4 5 6 7 8 9 10 11 12 13 14 15 16 17 18 19
000
FTUS44 KMAF 231557 AAA
TAFINK
TAF AMD
KINK 231557Z 2316/2412 24017G27KT P6SM FEW250
     FM231800 26025G35KT P6SM FEW250
      TEMPO 2319/2323 6SM BLDU
     FM240100 28009KT P6SM FEW250=

USA.gov is the U.S. government's official web portal to all federal, state and local government web resources and services.